Airfield :
LOGIN :

Register | Disclaimer

   EN    FR    IT 

 










Legend :    VFR   Marginal VFR   IFR   Intensive IFR   Very Intensive IFR
Visi :
Ceiling :
>= 8 km
>= 3000ft
5 to 8 km
1000 to 3000 ft
1500m to 5 km
500 to 1000 ft
800 to 1500m
200 to 500 ft
< 800m
< 200 ft
Symbols :   Thunderstorms  Fog  Heavy snow  Heavy precipitations  Wind > 20 kt
SIGMETs :     Misc.  Thunderstorms  Icing  Turbulence  Mountain Waves  Volcanic Ashes






- Airport Elevation : 424 ft
- IATA code : QGY


LHPR - Györ Per

CURRENT METAR :
  • 211845Z AUTO 14008KT CAVOK 11/09 Q1017 NOSIG

EXPIRED METARs :
  • 211815Z AUTO 13008KT CAVOK 11/09 Q1017 NOSIG
  • 211745Z AUTO 13007KT CAVOK 12/09 Q1017 NOSIG
  • 211715Z AUTO 12009KT CAVOK 12/10 Q1017 NOSIG
  • 211645Z AUTO 12008KT CAVOK 12/10 Q1017 NOSIG
  • 211615Z AUTO 12008KT CAVOK 13/10 Q1017 NOSIG

TAF TAF LHPR
Valid from the 21 at 18:00 until the 22 at 03:00 UTC


211715Z 2118/2203 12008KT CAVOK
PROB40 2122/2201 3000 BR
BECMG 2201/2203 0800 FG BKN005
PROB30 2201/2203 0150 VV002



MET'MAP, your aeronautical weather chart ! - Copyright ORBIFLY December 2007 - Disclaimer

ORBIFLY MET'MAP TEAM :

Programming & Development : Alexandra Zaïnal
Concept & original design : Baudouin d'Aumeries
Assistance for programming : Marc-Olivier Méhu
Technical & hardware support : Manuel Goepfert

Contact : metmap@orbifly.com




SOURCES & CREDITS :

   NOAA